Dogwood City, Texas
Current Conditions -  °F | °C
As of 10:53 AM on Thursday 30 Oct 2014 (Local Time) from KTYR Reporting Station
Clear Clear  
Wind Chill: 66°   Ceiling: Unl
Heat Index: 66°   Visibility: 10mi
Dew Point: 46°   Wind: 8mph
Humidity: 48%   Direction: 140°SE
Pressure: 30.19"   Gusts: NA
Location:  32.2242°N, 95.404°W
Report Text: KTYR 301553Z 14007KT 10SM CLR 19/08 A3019 RMK AO2 SLP217 T01890078
Loading
Personal Weather Stations






























Interactive Weather Map
Tropical Storm Tracking
New forecast layout! Learn more

10-Day Weather Forecast

Advertisements
Track Severe Weather on mobile